ADDS METAR Data INFO
IDs: Format: Raw Decoded Include TAF

Data at: 2346 UTC 15 Dec 2017

KCUH 152335Z AUTO 00000KT 10SM CLR 06/M05 A3013 RMK AO2 T00621049
KCUH 152315Z AUTO 23004KT 10SM CLR 07/M05 A3013 RMK AO2 T00671052
KCUH 152255Z AUTO 22005KT 10SM CLR 08/M05 A3013 RMK AO2 T00811051
KCUH 152235Z AUTO 22008KT 10SM CLR 09/M05 A3013 RMK AO2 T00911053
KCUH 152215Z AUTO 23007KT 10SM CLR 10/M06 A3013 RMK AO2 T00951056
KCUH 152155Z AUTO 23008KT 10SM CLR 10/M06 A3014 RMK AO2 T01001058
KCUH 152135Z AUTO 24007KT 200V260 10SM CLR 10/M06 A3014 RMK AO2 T00981057
KCUH 152115Z AUTO 22008KT 10SM CLR 10/M06 A3015 RMK AO2 T00981056
KCUH 152055Z AUTO 26010KT 10SM CLR 10/M06 A3015 RMK AO2 T01011056
KCUH 152035Z AUTO 27011G15KT 10SM CLR 10/M06 A3016 RMK AO2 T00981057
KCUH 152015Z AUTO 23006KT 10SM CLR 10/M05 A3017 RMK AO2 T00951052
KCUH 151955Z AUTO 25005KT 10SM CLR 09/M05 A3018 RMK AO2 T00921048
KCUH 151935Z AUTO 27010KT 10SM CLR 09/M06 A3019 RMK AO2 T00881056
KCUH 151915Z AUTO 27010KT 10SM CLR 09/M04 A3020 RMK AO2 T00861042
KCUH 151855Z AUTO 27005KT 10SM CLR 08/M03 A3021 RMK AO2 T00811033
KCUH 151835Z AUTO 28008KT 10SM CLR 08/M03 A3022 RMK AO2 T00801028
KCUH 151815Z AUTO 29008KT 10SM CLR 08/M03 A3023 RMK AO2 T00751027
KCUH 151755Z AUTO 29009KT 10SM CLR 07/M02 A3025 RMK AO2 T00701021 10070 21026
KCUH 151735Z AUTO 28006KT 10SM CLR 06/M02 A3025 RMK AO2 T00641017
KCUH 151715Z AUTO 28005KT 10SM CLR 06/M01 A3027 RMK AO2 T00621011
KCUH 151655Z AUTO 27004KT 10SM CLR 05/M01 A3027 RMK AO2 T00491011
KCUH 151635Z AUTO 27003KT 10SM CLR 04/M01 A3028 RMK AO2 T00431011
KCUH 151615Z AUTO 27003KT 10SM CLR 04/M01 A3028 RMK AO2 T00361011
KCUH 151555Z AUTO 28004KT 10SM CLR 03/M01 A3028 RMK AO2 T00271012
KCUH 151535Z AUTO 28005KT 10SM CLR 02/M01 A3027 RMK AO2 T00161015
KCUH 151515Z AUTO 30004KT 10SM CLR 01/M01 A3027 RMK AO2 T00121013
KCUH 151455Z AUTO 27003KT 10SM CLR 00/M01 A3027 RMK AO2 T00011015
KCUH 151435Z AUTO 00000KT 10SM CLR M01/M02 A3027 RMK AO2 T10071023
KCUH 151415Z AUTO 26003KT 10SM CLR M01/M03 A3027 RMK AO2 T10151028
KCUH 151355Z AUTO 00000KT 10SM CLR M02/M03 A3027 RMK AO2 T10191029
KCUH 151335Z AUTO 00000KT 10SM CLR M02/M03 A3027 RMK AO2 T10241032
KCUH 151315Z AUTO 00000KT 10SM CLR M02/M03 A3026 RMK AO2 T10211029
KCUH 151255Z AUTO 00000KT 10SM CLR M02/M03 A3026 RMK AO2 T10251034
KCUH 151235Z AUTO 29003KT 10SM CLR M01/M03 A3025 RMK AO2 T10141027
KCUH 151215Z AUTO 29006KT 10SM CLR M01/M02 A3025 RMK AO2 T10091022
KCUH 151155Z AUTO 30008KT 10SM CLR 00/M02 A3024 RMK AO2 T10051019 10039 21007
KCUH 151135Z AUTO 30008KT 10SM CLR M01/M02 A3023 RMK AO2 T10061020
KCUH 151115Z AUTO 30007KT 10SM CLR 00/M02 A3023 RMK AO2 T00001017
KCUH 151055Z AUTO 31007KT 10SM CLR 00/M01 A3023 RMK AO2 T00041013
KCUH 151035Z AUTO 31009KT 10SM CLR 01/M01 A3023 RMK AO2 T00051011
KCUH 151015Z AUTO 30008KT 10SM CLR 01/M01 A3023 RMK AO2 T00061010
KCUH 150955Z AUTO 30008KT 10SM CLR 01/M01 A3023 RMK AO2 T00071010
KCUH 150935Z AUTO 31007KT 10SM CLR 01/M01 A3023 RMK AO2 T00111007
KCUH 150915Z AUTO 31008KT 10SM CLR 02/00 A3022 RMK AO2 T00171005
KCUH 150855Z AUTO 32007KT 10SM CLR 02/00 A3021 RMK AO2 T00181005
KCUH 150835Z AUTO 32008KT 10SM CLR 02/00 A3020 RMK AO2 T00201004
KCUH 150815Z AUTO 31007KT 10SM CLR 02/00 A3020 RMK AO2 T00221002
KCUH 150755Z AUTO 31008KT 10SM CLR 03/00 A3020 RMK AO2 T00261001
KCUH 150730Z AUTO 32009KT 10SM CLR 03/00 A3019 RMK AO2 T00310000
KCUH 150715Z AUTO 32009KT 10SM CLR 03/00 A3019 RMK AO2 T00301002
KCUH 150655Z AUTO 31007KT 10SM SCT043 03/00 A3019 RMK AO2 T00281005
KCUH 150635Z AUTO 30009KT 10SM SCT043 04/00 A3019 RMK AO2 T00361005
KCUH 150615Z AUTO 31009KT 10SM CLR 03/M01 A3018 RMK AO2 T00281010
KCUH 150555Z AUTO 30008KT 10SM CLR 03/M02 A3018 RMK AO2 T00251016 10045 20004 400980004
KCUH 150535Z AUTO 30008KT 10SM CLR 02/M02 A3018 RMK AO2 T00211020
KCUH 150515Z AUTO 29009KT 10SM SCT070 SCT085 03/M02 A3017 RMK AO2 T00251020
KCUH 150455Z AUTO 28008KT 10SM SCT070 OVC085 03/M02 A3017 RMK AO2 T00281020
KCUH 150435Z AUTO 28004KT 10SM OVC085 03/M02 A3016 RMK AO2 T00281020
KCUH 150415Z AUTO 28004KT 10SM SCT065 BKN085 03/M02 A3016 RMK AO2 T00301020
KCUH 150355Z AUTO 00000KT 10SM BKN065 BKN085 04/M01 A3016 RMK AO2 T00401015
KCUH 150335Z AUTO 00000KT 10SM BKN085 03/M02 A3016 RMK AO2 T00331020
KCUH 150315Z AUTO 00000KT 10SM SCT060 BKN085 02/M02 A3015 RMK AO2 T00171022
KCUH 150255Z AUTO 00000KT 10SM BKN060 04/M02 A3016 RMK AO2 T00421025
KCUH 150235Z AUTO 00000KT 10SM SCT080 05/M02 A3016 RMK AO2 T00451025
KCUH 150215Z AUTO 00000KT 10SM BKN080 03/M02 A3015 RMK AO2 T00291025
KCUH 150155Z AUTO 00000KT 10SM OVC075 03/M02 A3015 RMK AO2 T00271024
KCUH 150135Z AUTO 00000KT 10SM OVC065 02/M02 A3015 RMK AO2 T00201020
KCUH 150115Z AUTO 00000KT 10SM OVC065 02/M02 A3015 RMK AO2 T00211024
KCUH 150055Z AUTO 00000KT 10SM BKN065 01/M03 A3015 RMK AO2 T00071034
KCUH 150035Z AUTO 00000KT 10SM CLR 01/M03 A3015 RMK AO2 T00091032
KCUH 150015Z AUTO 00000KT 10SM CLR 02/M03 A3015 RMK AO2 T00191031
KCUH 142355Z AUTO 00000KT 10SM CLR 04/M04 A3014 RMK AO2 T00361039 10098 20036
KCUH 142335Z AUTO 00000KT 10SM CLR 06/M03 A3013 RMK AO2 T00561034
KCUH 142315Z AUTO 00000KT 10SM CLR 07/M03 A3013 RMK AO2 T00681035
KCUH 142255Z AUTO 33005KT 10SM CLR 08/M03 A3012 RMK AO2 T00751035
KCUH 142235Z AUTO 33006KT 10SM CLR 09/M03 A3011 RMK AO2 T00851034
KCUH 142215Z AUTO 31008KT 10SM CLR 09/M03 A3011 RMK AO2 T00901035
KCUH 142155Z AUTO 34007KT 10SM CLR 09/M03 A3011 RMK AO2 T00921034
KCUH 142135Z AUTO 36009KT 10SM CLR 09/M03 A3011 RMK AO2 T00921035
KCUH 142115Z AUTO 01011G15KT 10SM CLR 10/M03 A3011 RMK AO2 T00971033
KCUH 142055Z AUTO 36009G14KT 10SM CLR 10/M03 A3012 RMK AO2 T00961033
KCUH 142035Z AUTO 01009G16KT 10SM CLR 09/M03 A3011 RMK AO2 T00921033
KCUH 142015Z AUTO 35010KT 10SM SCT049 10/M03 A3012 RMK AO2 T00951032
KCUH 141955Z AUTO 36011KT 10SM CLR 09/M03 A3012 RMK AO2 T00921030
KCUH 141935Z AUTO 34011G15KT 10SM SCT046 09/M03 A3012 RMK AO2 T00881028
KCUH 141915Z AUTO 34007G16KT 10SM SCT120 07/M03 A3013 RMK AO2 T00711029
KCUH 141855Z AUTO 34011G16KT 10SM SCT044 BKN120 07/M03 A3014 RMK AO2 T00721030
KCUH 141835Z AUTO 35009G16KT 320V020 10SM SCT042 09/M02 A3014 RMK AO2 T00871025
KCUH 141815Z AUTO 33011G16KT 10SM SCT042 08/M03 A3015 RMK AO2 T00761026
KCUH 141755Z AUTO 33012G19KT 10SM SCT045 08/M03 A3016 RMK AO2 T00761027 10077 20038
KCUH 141735Z AUTO 34010KT 10SM SCT045 07/M03 A3016 RMK AO2 T00741026
KCUH 141715Z AUTO 33006KT 10SM CLR 07/M03 A3017 RMK AO2 T00661026
KCUH 141655Z AUTO 36005KT 10SM CLR 06/M02 A3017 RMK AO2 T00631025
KCUH 141635Z AUTO 01007KT 10SM CLR 06/M03 A3017 RMK AO2 T00581026
KCUH 141615Z AUTO 36008KT 10SM CLR 06/M03 A3017 RMK AO2 T00581026
KCUH 141555Z AUTO 03007KT 10SM CLR 06/M03 A3016 RMK AO2 T00551030
KCUH 141535Z AUTO 03010G14KT 10SM CLR 06/M03 A3015 RMK AO2 T00561030
KCUH 141515Z AUTO 01008KT 10SM CLR 06/M02 A3014 RMK AO2 T00601025
KCUH 141455Z AUTO 01008KT 10SM CLR 05/M03 A3013 RMK AO2 T00501026
KCUH 141435Z AUTO 01004KT 10SM CLR 05/M02 A3012 RMK AO2 T00491020
KCUH 141415Z AUTO 01006KT 10SM CLR 04/M02 A3011 RMK AO2 T00401020
KCUH 141355Z AUTO 02005KT 10SM CLR 04/M02 A3010 RMK AO2 T00401020
KCUH 141335Z AUTO 02006KT 10SM CLR 04/M02 A3009 RMK AO2 T00421020
KCUH 141315Z AUTO 02006KT 10SM CLR 05/M02 A3010 RMK AO2 T00451021
KCUH 141255Z AUTO 03007KT 10SM CLR 05/M02 A3008 RMK AO2 T00461022
KCUH 141235Z AUTO 03006KT 10SM CLR 05/M02 A3007 RMK AO2 T00481021
KCUH 141215Z AUTO 03006KT 10SM CLR 05/M02 A3005 RMK AO2 T00501021
KCUH 141155Z AUTO 04008KT 10SM CLR 05/M02 A3004 RMK AO2 T00511020 10073 20051